Time;durP1;ratioP1;P1;durP2;ratioP2;P2;SDS_P1;SDS_P2;PMS_P1;PMS_P2;Temp;Humidity;BMP_temperature;BMP_pressure;BME280_temperature;BME280_humidity;BME280_pressure;Samples;Min_cycle;Max_cycle;Signal;HPM_P1;HPM_P2
2021/03/28 04:48:59;;;;;;;4.03;1.30;;;;;;;;;;5121608;27;20361;-87
2021/03/28 04:51:54;;;;;;;4.47;1.20;;;;;;;;;;5112272;28;20520;-87
2021/03/28 04:54:38;;;;;;;6.65;2.05;;;;;;;;;;5092819;28;20075;-87
2021/03/28 04:57:13;;;;;;;4.72;1.33;;;;;;;;;;5109976;28;20047;-87
2021/03/28 05:05:00;;;;;;;5.25;1.50;;;;;;;;;;5055479;28;20052;-79
2021/03/28 05:07:48;;;;;;;5.95;2.10;;;;;;;;;;5056952;28;20052;-79
2021/03/28 05:10:13;;;;;;;5.75;1.25;;;;;;;;;;5060956;28;20074;-80
2021/03/28 05:12:52;;;;;;;5.10;1.40;;;;;;;;;;5058914;28;20017;-80
2021/03/28 05:15:18;;;;;;;6.43;1.85;;;;;;;;;;5048324;28;20036;-79
2021/03/28 05:18:07;;;;;;;6.20;1.98;;;;;;;;;;5063732;28;20494;-81
2021/03/28 05:20:36;;;;;;;6.25;1.90;;;;;;;;;;5054059;28;20025;-78
2021/03/28 05:23:31;;;;;;;5.88;1.75;;;;;;;;;;5069230;28;20525;-77
2021/03/28 05:26:15;;;;;;;8.80;1.70;;;;;;;;;;5027663;28;20478;-80
2021/03/28 05:29:03;;;;;;;7.65;2.45;;;;;;;;;;5053463;28;20017;-80
2021/03/28 05:31:49;;;;;;;7.32;2.47;;;;;;;;;;5042833;28;20469;-80
2021/03/28 05:34:27;;;;;;;6.25;1.77;;;;;;;;;;5048321;28;20029;-81
2021/03/28 05:37:15;;;;;;;5.75;2.05;;;;;;;;;;5053602;28;20028;-79
2021/03/28 05:39:41;;;;;;;7.25;2.50;;;;;;;;;;5068962;28;20020;-78
2021/03/28 05:42:25;;;;;;;5.78;1.75;;;;;;;;;;5062834;28;20029;-78
2021/03/28 05:44:57;;;;;;;4.97;2.53;;;;;;;;;;5039280;28;20037;-80
2021/03/28 05:47:40;;;;;;;12.48;2.67;;;;;;;;;;5061203;28;20514;-78
2021/03/28 05:50:18;;;;;;;8.10;1.85;;;;;;;;;;5038572;28;20024;-79
2021/03/28 05:52:43;;;;;;;5.07;1.63;;;;;;;;;;5044343;28;20036;-81
2021/03/28 05:55:28;;;;;;;5.05;1.67;;;;;;;;;;5041599;28;20100;-79
2021/03/28 05:58:17;;;;;;;6.20;1.80;;;;;;;;;;5028181;28;20029;-81
2021/03/28 06:00:46;;;;;;;6.80;1.90;;;;;;;;;;5038754;28;20022;-79
2021/03/28 06:03:35;;;;;;;7.43;1.65;;;;;;;;;;5033181;28;20052;-79
2021/03/28 06:06:19;;;;;;;4.45;1.60;;;;;;;;;;5034421;28;20120;-81
2021/03/28 06:09:04;;;;;;;5.85;1.45;;;;;;;;;;5038724;28;20099;-78
2021/03/28 06:11:32;;;;;;;8.80;2.00;;;;;;;;;;5039601;28;20018;-79
2021/03/28 06:14:13;;;;;;;8.40;2.88;;;;;;;;;;5039134;28;20026;-79
2021/03/28 06:16:46;;;;;;;6.35;1.85;;;;;;;;;;5037758;28;20048;-79
2021/03/28 06:19:25;;;;;;;7.32;2.08;;;;;;;;;;5031835;28;20018;-80
2021/03/28 06:21:50;;;;;;;11.77;2.75;;;;;;;;;;5038117;28;20052;-80
2021/03/28 06:24:40;;;;;;;10.50;2.22;;;;;;;;;;5033329;28;20021;-80
2021/03/28 06:27:14;;;;;;;7.72;2.22;;;;;;;;;;5026728;28;20124;-80
2021/03/28 06:29:59;;;;;;;7.45;1.88;;;;;;;;;;5038172;28;20026;-78
2021/03/28 06:32:37;;;;;;;7.32;2.25;;;;;;;;;;5021403;28;20048;-78
2021/03/28 06:35:17;;;;;;;7.63;2.47;;;;;;;;;;5030113;28;20057;-79
2021/03/28 06:37:54;;;;;;;12.85;4.50;;;;;;;;;;5038899;28;20036;-80
2021/03/28 06:40:39;;;;;;;15.65;7.65;;;;;;;;;;5030638;28;20017;-78
2021/03/28 06:43:04;;;;;;;11.45;4.97;;;;;;;;;;5032230;28;20021;-79
2021/03/28 06:45:57;;;;;;;13.68;3.42;;;;;;;;;;5014768;28;20030;-79
2021/03/28 06:48:49;;;;;;;6.68;2.17;;;;;;;;;;5033782;28;20078;-77
2021/03/28 06:53:43;;;;;;;23.02;10.48;;;;;;;;;;5095845;28;20361;-77
2021/03/28 06:56:31;;;;;;;23.23;11.55;;;;;;;;;;5070813;28;20028;-77
2021/03/28 06:59:10;;;;;;;13.40;7.32;;;;;;;;;;5073119;28;20500;-79
2021/03/28 07:01:49;;;;;;;9.70;3.40;;;;;;;;;;5088527;28;20082;-78
2021/03/28 07:04:21;;;;;;;15.25;3.83;;;;;;;;;;5085368;28;20012;-77
2021/03/28 07:06:46;;;;;;;;;;;;;;;;;;5075772;28;20059;-79
2021/03/28 07:09:31;;;;;;;8.35;2.55;;;;;;;;;;5060534;28;19909;-78
2021/03/28 07:12:02;;;;;;;7.10;2.55;;;;;;;;;;5074006;28;20394;-78
2021/03/28 07:14:47;;;;;;;9.50;3.13;;;;;;;;;;5086576;28;20035;-78
2021/03/28 07:17:31;;;;;;;10.20;3.78;;;;;;;;;;5076927;28;20086;-79
2021/03/28 07:20:15;;;;;;;10.82;3.80;;;;;;;;;;5068055;28;20025;-78
2021/03/28 07:22:50;;;;;;;10.60;3.83;;;;;;;;;;5069259;28;20075;-78
2021/03/28 07:25:20;;;;;;;9.43;2.50;;;;;;;;;;5060143;28;20393;-77
2021/03/28 07:27:49;;;;;;;8.20;2.90;;;;;;;;;;5050643;28;20090;-77
2021/03/28 07:30:27;;;;;;;7.40;3.00;;;;;;;;;;5063341;28;20056;-78
2021/03/28 07:33:11;;;;;;;10.90;3.22;;;;;;;;;;5063160;28;20376;-78
2021/03/28 07:35:37;;;;;;;10.77;2.90;;;;;;;;;;5065387;28;20076;-78
2021/03/28 07:38:21;;;;;;;8.75;3.28;;;;;;;;;;5061848;28;20460;-78
2021/03/28 07:41:05;;;;;;;18.77;5.53;;;;;;;;;;5073393;28;20464;-79
2021/03/28 07:43:54;;;;;;;14.75;6.18;;;;;;;;;;5066176;28;20515;-78
2021/03/28 07:46:30;;;;;;;13.90;3.85;;;;;;;;;;5043748;28;20071;-78
2021/03/28 07:49:15;;;;;;;14.32;5.00;;;;;;;;;;5061121;28;20056;-79
2021/03/28 07:52:06;;;;;;;11.68;4.85;;;;;;;;;;5063392;28;20020;-79
2021/03/28 07:54:50;;;;;;;13.45;4.40;;;;;;;;;;5067110;28;20098;-79
2021/03/28 07:57:21;;;;;;;11.57;2.72;;;;;;;;;;5069630;28;20051;-80
2021/03/28 08:00:16;;;;;;;6.43;2.80;;;;;;;;;;5081758;28;20211;-78
2021/03/28 08:04:59;;;;;;;9.32;3.03;;;;;;;;;;5120535;27;20382;-78
2021/03/28 08:07:43;;;;;;;11.50;3.10;;;;;;;;;;5112831;28;20031;-76
2021/03/28 08:10:27;;;;;;;9.30;3.67;;;;;;;;;;5109392;28;20460;-79
2021/03/28 08:13:02;;;;;;;7.43;2.45;;;;;;;;;;5089246;28;20032;-78
2021/03/28 08:15:31;;;;;;;8.95;3.10;;;;;;;;;;5094269;28;20434;-81
2021/03/28 08:18:12;;;;;;;7.07;2.83;;;;;;;;;;5089526;28;20031;-80
2021/03/28 08:20:48;;;;;;;6.22;2.58;;;;;;;;;;5087323;28;20019;-79
2021/03/28 08:23:18;;;;;;;8.43;2.33;;;;;;;;;;5087128;28;20060;-77
2021/03/28 08:25:44;;;;;;;10.23;2.53;;;;;;;;;;5086900;28;20020;-79
2021/03/28 08:28:28;;;;;;;5.75;2.10;;;;;;;;;;5089613;28;20074;-78
2021/03/28 08:31:06;;;;;;;11.75;4.00;;;;;;;;;;5077265;28;20032;-80
2021/03/28 08:33:32;;;;;;;23.48;9.57;;;;;;;;;;5089534;28;20025;-80
2021/03/28 08:35:58;;;;;;;17.98;6.88;;;;;;;;;;5087377;28;20074;-80
2021/03/28 08:38:33;;;;;;;11.70;4.53;;;;;;;;;;5090190;28;20024;-79
2021/03/28 08:41:18;;;;;;;9.48;3.35;;;;;;;;;;5069091;28;20040;-80
2021/03/28 08:44:02;;;;;;;6.43;2.78;;;;;;;;;;5077626;28;20020;-80
2021/03/28 08:46:46;;;;;;;12.52;3.78;;;;;;;;;;5080482;28;20032;-80
2021/03/28 08:49:31;;;;;;;11.48;3.20;;;;;;;;;;5089041;28;20024;-79
2021/03/28 08:52:03;;;;;;;9.55;2.47;;;;;;;;;;5090303;28;20036;-80
2021/03/28 08:54:47;;;;;;;7.72;2.30;;;;;;;;;;5091327;28;20042;-80
2021/03/28 08:57:21;;;;;;;8.35;2.25;;;;;;;;;;5086461;28;20028;-80
2021/03/28 09:00:06;;;;;;;7.65;2.15;;;;;;;;;;5080252;28;20103;-78
2021/03/28 09:02:50;;;;;;;11.65;4.18;;;;;;;;;;5083910;28;20028;-77
2021/03/28 09:05:25;;;;;;;16.77;3.47;;;;;;;;;;5076905;28;20036;-79
2021/03/28 09:08:09;;;;;;;6.93;2.30;;;;;;;;;;5067309;28;20049;-79
2021/03/28 09:10:44;;;;;;;12.48;2.65;;;;;;;;;;5082990;28;20052;-79
2021/03/28 09:15:49;;;;;;;13.07;4.43;;;;;;;;;;5109063;27;20339;-79
2021/03/28 09:18:29;;;;;;;9.13;3.25;;;;;;;;;;5104949;28;20032;-78
2021/03/28 09:21:02;;;;;;;12.52;3.55;;;;;;;;;;5106653;28;20020;-79
2021/03/28 09:23:37;;;;;;;7.72;2.70;;;;;;;;;;5110834;28;20020;-83
2021/03/28 09:26:05;;;;;;;10.52;3.65;;;;;;;;;;5104811;28;20059;-81
2021/03/28 09:28:44;;;;;;;10.52;2.78;;;;;;;;;;5104604;28;20036;-80
2021/03/28 09:31:26;;;;;;;7.55;2.83;;;;;;;;;;5111641;28;20024;-82
2021/03/28 09:33:55;;;;;;;8.68;3.38;;;;;;;;;;5103381;28;20019;-80
2021/03/28 09:36:21;;;;;;;9.65;3.03;;;;;;;;;;5111246;28;20028;-82
2021/03/28 09:38:52;;;;;;;7.05;1.67;;;;;;;;;;5111209;28;20077;-82
2021/03/28 09:41:21;;;;;;;7.43;2.38;;;;;;;;;;5111478;28;20451;-82
2021/03/28 09:44:06;;;;;;;6.05;2.38;;;;;;;;;;5112936;28;20045;-82
2021/03/28 09:46:43;;;;;;;6.63;2.38;;;;;;;;;;5112673;28;20023;-80
2021/03/28 09:49:32;;;;;;;5.60;2.10;;;;;;;;;;5106164;28;20376;-81
2021/03/28 09:54:27;;;;;;;7.90;2.38;;;;;;;;;;5117042;27;20336;-82
2021/03/28 09:57:12;;;;;;;13.45;3.72;;;;;;;;;;5104417;28;20077;-82
2021/03/28 09:59:56;;;;;;;7.30;3.25;;;;;;;;;;5103060;28;20019;-81
2021/03/28 10:02:22;;;;;;;11.80;2.75;;;;;;;;;;5101940;28;20024;-82
2021/03/28 10:04:47;;;;;;;9.00;3.33;;;;;;;;;;5086476;28;20536;-82
2021/03/28 10:07:14;;;;;;;9.27;2.20;;;;;;;;;;5086637;28;20449;-82
2021/03/28 10:09:58;;;;;;;8.57;2.65;;;;;;;;;;5090089;28;20028;-81
2021/03/28 10:12:34;;;;;;;7.20;2.83;;;;;;;;;;5103411;28;20024;-82
2021/03/28 10:15:00;;;;;;;7.68;2.70;;;;;;;;;;5102684;28;20020;-82
2021/03/28 10:17:39;;;;;;;8.93;3.40;;;;;;;;;;5102469;28;20058;-82
2021/03/28 10:20:15;;;;;;;11.00;3.88;;;;;;;;;;5095116;28;20120;-81
2021/03/28 10:22:43;;;;;;;8.43;3.22;;;;;;;;;;5103909;28;20021;-80
2021/03/28 10:25:42;;;;;;;3.90;1.60;;;;;;;;;;5101001;28;20036;-81
2021/03/28 10:28:25;;;;;;;11.88;3.58;;;;;;;;;;5076021;28;20094;-82
2021/03/28 10:31:00;;;;;;;6.28;1.83;;;;;;;;;;5087008;28;20012;-79
2021/03/28 10:33:31;;;;;;;4.55;1.60;;;;;;;;;;5100317;28;20482;-81
2021/03/28 10:35:57;;;;;;;;;;;;;;;;;;5078241;28;20051;-81
2021/03/28 10:38:35;;;;;;;9.40;2.33;;;;;;;;;;5083589;28;19912;-80
2021/03/28 10:41:36;;;;;;;4.95;1.50;;;;;;;;;;5086066;28;20630;-82
2021/03/28 10:44:14;;;;;;;5.95;2.22;;;;;;;;;;5019382;28;20062;-82
2021/03/28 10:46:53;;;;;;;4.95;1.70;;;;;;;;;;5078313;28;20029;-82
2021/03/28 10:49:34;;;;;;;5.00;1.52;;;;;;;;;;5089957;28;20044;-79
2021/03/28 10:52:27;;;;;;;4.30;1.73;;;;;;;;;;5088972;28;20047;-81
2021/03/28 10:55:11;;;;;;;8.20;2.92;;;;;;;;;;5075003;28;20074;-82
2021/03/28 10:57:39;;;;;;;4.75;1.48;;;;;;;;;;5083667;28;20095;-82
2021/03/28 11:00:24;;;;;;;6.47;1.92;;;;;;;;;;5089477;28;20051;-80
2021/03/28 11:03:02;;;;;;;6.57;1.70;;;;;;;;;;5067604;22;20073;-83
2021/03/28 11:05:46;;;;;;;5.90;1.40;;;;;;;;;;5011287;28;20133;-84
2021/03/28 11:08:30;;;;;;;4.60;1.40;;;;;;;;;;5013750;28;20042;-84
2021/03/28 11:11:11;;;;;;;7.32;1.67;;;;;;;;;;5009232;28;20071;-87
2021/03/28 11:13:56;;;;;;;3.50;1.30;;;;;;;;;;5027862;28;20371;-86
2021/03/28 11:16:25;;;;;;;6.55;1.80;;;;;;;;;;5013166;28;20037;-85
2021/03/28 11:18:54;;;;;;;4.28;1.45;;;;;;;;;;5010935;28;20061;-86
2021/03/28 11:21:29;;;;;;;6.35;1.63;;;;;;;;;;5027903;28;20563;-87
2021/03/28 11:24:16;;;;;;;3.92;1.30;;;;;;;;;;5029298;28;20025;-85
2021/03/28 11:27:00;;;;;;;7.90;2.42;;;;;;;;;;5011590;28;20026;-85
2021/03/28 11:29:50;;;;;;;5.07;1.63;;;;;;;;;;5013063;28;20029;-86
2021/03/28 11:32:34;;;;;;;8.65;1.77;;;;;;;;;;5010558;28;20036;-85
2021/03/28 11:35:09;;;;;;;4.95;1.50;;;;;;;;;;5026972;28;20046;-85
2021/03/28 11:37:35;;;;;;;7.82;1.70;;;;;;;;;;5028322;28;20425;-86
2021/03/28 11:40:19;;;;;;;5.68;1.45;;;;;;;;;;5014206;28;20052;-85
2021/03/28 11:42:47;;;;;;;7.82;2.15;;;;;;;;;;5012924;28;20038;-85
2021/03/28 11:45:32;;;;;;;6.82;1.88;;;;;;;;;;5016002;28;20470;-84
2021/03/28 11:48:02;;;;;;;4.82;1.63;;;;;;;;;;5027552;28;20056;-84
2021/03/28 11:50:27;;;;;;;4.50;1.40;;;;;;;;;;5014195;28;20363;-85
2021/03/28 11:53:02;;;;;;;5.05;1.90;;;;;;;;;;5015236;28;20042;-85
2021/03/28 11:55:39;;;;;;;4.93;1.60;;;;;;;;;;5012238;28;20533;-85
2021/03/28 11:58:21;;;;;;;4.68;1.30;;;;;;;;;;5011501;28;20034;-85
2021/03/28 12:00:46;;;;;;;3.05;0.98;;;;;;;;;;5013432;28;20429;-85
2021/03/28 12:03:24;;;;;;;4.30;1.20;;;;;;;;;;5012891;28;20025;-85
2021/03/28 12:05:58;;;;;;;5.07;1.80;;;;;;;;;;5028266;28;20121;-85
2021/03/28 12:08:26;;;;;;;6.32;1.67;;;;;;;;;;5028029;28;20082;-85
2021/03/28 12:10:52;;;;;;;6.68;1.83;;;;;;;;;;5009395;28;20029;-84
2021/03/28 12:13:28;;;;;;;6.85;2.15;;;;;;;;;;5011766;28;20026;-86
2021/03/28 12:15:55;;;;;;;10.00;1.83;;;;;;;;;;5003798;28;20022;-85
2021/03/28 12:18:24;;;;;;;5.30;1.65;;;;;;;;;;5013100;28;20580;-85
2021/03/28 12:21:01;;;;;;;5.63;1.70;;;;;;;;;;5012653;28;20026;-85
2021/03/28 12:23:39;;;;;;;5.93;1.85;;;;;;;;;;5011467;28;20485;-83
2021/03/28 12:26:08;;;;;;;5.60;1.77;;;;;;;;;;5013565;28;20044;-85
2021/03/28 12:28:57;;;;;;;4.53;1.42;;;;;;;;;;5013748;28;20092;-85
2021/03/28 12:31:25;;;;;;;6.50;1.50;;;;;;;;;;5003872;28;20490;-86
2021/03/28 12:33:56;;;;;;;4.25;1.65;;;;;;;;;;5011784;28;20107;-85
2021/03/28 12:36:23;;;;;;;6.57;1.65;;;;;;;;;;5013516;28;20052;-85
2021/03/28 12:38:50;;;;;;;5.22;1.95;;;;;;;;;;5012870;28;20030;-84
2021/03/28 12:41:21;;;;;;;9.15;1.75;;;;;;;;;;5009719;28;20053;-84
2021/03/28 12:43:48;;;;;;;8.00;2.17;;;;;;;;;;5015637;28;20032;-84
2021/03/28 12:46:23;;;;;;;8.95;2.28;;;;;;;;;;5028188;28;20050;-84
2021/03/28 12:48:49;;;;;;;4.90;1.48;;;;;;;;;;5013625;28;20034;-85
2021/03/28 12:51:16;;;;;;;5.88;1.83;;;;;;;;;;5015193;28;20438;-85
2021/03/28 12:56:00;;;;;;;5.57;1.55;;;;;;;;;;5098253;27;20385;-85
2021/03/28 12:58:40;;;;;;;4.80;1.60;;;;;;;;;;5075559;28;20035;-85
2021/03/28 13:01:20;;;;;;;6.32;2.20;;;;;;;;;;5084460;28;20040;-84
2021/03/28 13:03:48;;;;;;;7.60;1.98;;;;;;;;;;5072860;28;20506;-84
2021/03/28 13:06:29;;;;;;;4.80;1.70;;;;;;;;;;5055628;28;20064;-85
2021/03/28 13:09:10;;;;;;;12.55;1.75;;;;;;;;;;5075206;28;20029;-83
2021/03/28 13:11:39;;;;;;;4.63;1.50;;;;;;;;;;5074524;28;20427;-84
2021/03/28 13:14:07;;;;;;;4.57;1.20;;;;;;;;;;5077688;28;20286;-84
2021/03/28 13:16:33;;;;;;;5.40;1.75;;;;;;;;;;5054925;28;20024;-84
2021/03/28 13:19:00;;;;;;;9.90;2.03;;;;;;;;;;5061605;28;20071;-86
2021/03/28 13:21:25;;;;;;;5.90;1.92;;;;;;;;;;5072605;28;20028;-80
2021/03/28 13:23:54;;;;;;;5.13;2.10;;;;;;;;;;5079779;28;20025;-85
2021/03/28 13:26:25;;;;;;;5.40;1.73;;;;;;;;;;5067809;28;20025;-85
2021/03/28 13:29:00;;;;;;;6.32;2.70;;;;;;;;;;5062145;28;20039;-85
2021/03/28 13:31:28;;;;;;;5.60;2.25;;;;;;;;;;5053263;28;20380;-85
2021/03/28 13:33:58;;;;;;;5.85;2.15;;;;;;;;;;5086342;28;20020;-86
2021/03/28 13:36:28;;;;;;;6.35;2.35;;;;;;;;;;5078719;28;20051;-85
2021/03/28 13:39:06;;;;;;;6.00;2.07;;;;;;;;;;5057712;28;20027;-84
2021/03/28 13:41:40;;;;;;;13.27;2.00;;;;;;;;;;5053204;28;20321;-83
2021/03/28 13:44:15;;;;;;;10.07;3.00;;;;;;;;;;5064888;28;20492;-85
2021/03/28 13:46:49;;;;;;;6.82;1.67;;;;;;;;;;5063251;28;20472;-85
2021/03/28 13:49:24;;;;;;;6.45;1.40;;;;;;;;;;5071579;28;20541;-85
2021/03/28 13:52:05;;;;;;;4.20;1.98;;;;;;;;;;5071391;28;20047;-85
2021/03/28 13:54:31;;;;;;;9.70;4.13;;;;;;;;;;5069989;28;20082;-84
2021/03/28 13:56:58;;;;;;;11.52;3.53;;;;;;;;;;5067325;28;20036;-85
2021/03/28 13:59:31;;;;;;;5.45;2.03;;;;;;;;;;5066180;28;20052;-85
2021/03/28 14:01:59;;;;;;;7.25;2.47;;;;;;;;;;5058022;28;20115;-85
2021/03/28 14:04:41;;;;;;;8.02;3.35;;;;;;;;;;5067778;28;20028;-85
2021/03/28 14:07:13;;;;;;;10.18;5.72;;;;;;;;;;5058523;28;20016;-85
2021/03/28 14:09:40;;;;;;;6.03;2.03;;;;;;;;;;5056063;28;20636;-85
2021/03/28 14:12:28;;;;;;;5.10;2.30;;;;;;;;;;5067251;28;20031;-85
2021/03/28 14:15:02;;;;;;;6.75;2.97;;;;;;;;;;5063299;28;20032;-85
2021/03/28 14:17:30;;;;;;;7.47;2.38;;;;;;;;;;5048454;28;20083;-85
2021/03/28 14:20:15;;;;;;;7.93;2.10;;;;;;;;;;5062966;28;20082;-85
2021/03/28 14:22:49;;;;;;;4.80;1.98;;;;;;;;;;5049015;28;20028;-85
2021/03/28 14:25:30;;;;;;;6.60;2.70;;;;;;;;;;5044343;28;20024;-85
2021/03/28 14:27:56;;;;;;;6.10;1.73;;;;;;;;;;5054759;28;20028;-85
2021/03/28 14:30:33;;;;;;;7.03;2.53;;;;;;;;;;5048829;28;20032;-85
2021/03/28 14:33:00;;;;;;;7.80;2.17;;;;;;;;;;5038007;28;20512;-85
2021/03/28 14:35:44;;;;;;;7.57;2.35;;;;;;;;;;5043000;28;20024;-85
2021/03/28 14:38:16;;;;;;;6.18;2.00;;;;;;;;;;5075105;28;20047;-86
2021/03/28 14:40:47;;;;;;;6.72;2.25;;;;;;;;;;5069368;28;20029;-85
2021/03/28 14:43:13;;;;;;;5.43;1.90;;;;;;;;;;5052808;28;20039;-85
2021/03/28 14:45:41;;;;;;;10.40;3.00;;;;;;;;;;5075189;28;20099;-85
2021/03/28 14:48:17;;;;;;;4.47;2.13;;;;;;;;;;5057782;28;20025;-85
2021/03/28 14:50:55;;;;;;;5.35;1.70;;;;;;;;;;5053034;28;20028;-86
2021/03/28 14:53:21;;;;;;;4.22;2.00;;;;;;;;;;5075720;28;20100;-86
2021/03/28 14:55:49;;;;;;;4.28;1.67;;;;;;;;;;5041676;28;20025;-85
2021/03/28 14:58:15;;;;;;;4.25;1.83;;;;;;;;;;5050998;28;20025;-85
2021/03/28 15:00:43;;;;;;;9.10;4.10;;;;;;;;;;5070729;28;20021;-86
2021/03/28 15:03:16;;;;;;;5.57;2.35;;;;;;;;;;5068765;28;20607;-85
2021/03/28 15:06:00;;;;;;;5.68;2.03;;;;;;;;;;5070172;28;20094;-85
2021/03/28 15:08:44;;;;;;;5.80;2.28;;;;;;;;;;5037897;28;20029;-85
2021/03/28 15:11:13;;;;;;;7.13;2.25;;;;;;;;;;5044151;28;20041;-85
2021/03/28 15:13:58;;;;;;;6.72;2.33;;;;;;;;;;5038736;28;20031;-86
2021/03/28 15:16:29;;;;;;;6.88;2.20;;;;;;;;;;5044211;28;20017;-85
2021/03/28 15:19:08;;;;;;;5.15;1.92;;;;;;;;;;5042081;28;20515;-85
2021/03/28 15:21:43;;;;;;;7.35;1.67;;;;;;;;;;5050827;28;20033;-85
2021/03/28 15:24:24;;;;;;;7.07;2.25;;;;;;;;;;5049332;28;20480;-85
2021/03/28 15:27:06;;;;;;;8.75;3.28;;;;;;;;;;5053591;28;20028;-85
2021/03/28 15:29:36;;;;;;;10.07;3.78;;;;;;;;;;5050928;28;20028;-86
2021/03/28 15:32:20;;;;;;;9.80;5.28;;;;;;;;;;5040484;28;20136;-84
2021/03/28 15:34:53;;;;;;;9.05;3.67;;;;;;;;;;5062384;28;20453;-85
2021/03/28 15:37:25;;;;;;;10.30;5.28;;;;;;;;;;5063033;28;20028;-85
2021/03/28 15:40:15;;;;;;;8.65;2.85;;;;;;;;;;5050727;28;20484;-85
2021/03/28 15:42:50;;;;;;;6.00;1.90;;;;;;;;;;5064973;28;20024;-85
2021/03/28 15:45:22;;;;;;;5.43;2.05;;;;;;;;;;5067902;28;20381;-85
2021/03/28 15:47:56;;;;;;;5.38;2.05;;;;;;;;;;5064209;28;20044;-85
2021/03/28 15:50:40;;;;;;;7.03;2.25;;;;;;;;;;5063171;28;20070;-85
2021/03/28 15:53:10;;;;;;;8.77;2.17;;;;;;;;;;5053800;28;20389;-85
2021/03/28 15:55:54;;;;;;;6.68;1.63;;;;;;;;;;5065170;28;20112;-85
2021/03/28 15:58:19;;;;;;;6.03;2.30;;;;;;;;;;5051100;28;20082;-83
2021/03/28 16:01:01;;;;;;;5.75;1.75;;;;;;;;;;5067367;28;20025;-83
2021/03/28 16:03:41;;;;;;;7.60;2.17;;;;;;;;;;5041088;28;20044;-86
2021/03/28 16:06:10;;;;;;;9.57;2.45;;;;;;;;;;5054248;28;20488;-87
2021/03/28 16:08:55;;;;;;;6.95;2.40;;;;;;;;;;5065770;28;20033;-87
2021/03/28 16:13:42;;;;;;;5.20;1.70;;;;;;;;;;5117405;27;20363;-84
2021/03/28 16:16:28;;;;;;;3.80;2.03;;;;;;;;;;5123021;28;20020;-83
2021/03/28 16:18:55;;;;;;;7.88;2.38;;;;;;;;;;5104464;28;20035;-82
2021/03/28 16:21:23;;;;;;;6.18;2.53;;;;;;;;;;5106547;28;20046;-81
2021/03/28 16:24:01;;;;;;;9.82;2.45;;;;;;;;;;5082354;28;20020;-81
2021/03/28 16:26:39;;;;;;;6.13;1.70;;;;;;;;;;5089942;28;20485;-82
2021/03/28 16:29:14;;;;;;;5.60;2.20;;;;;;;;;;5073110;28;20051;-81
2021/03/28 16:32:15;;;;;;;6.55;2.22;;;;;;;;;;5103091;28;20024;-82
2021/03/28 16:34:59;;;;;;;8.20;2.72;;;;;;;;;;5015936;28;20026;-81
2021/03/28 16:37:25;;;;;;;7.95;2.05;;;;;;;;;;5067173;28;20032;-81
2021/03/28 16:39:54;;;;;;;6.90;2.33;;;;;;;;;;5075504;28;20009;-81
2021/03/28 16:42:32;;;;;;;5.93;2.35;;;;;;;;;;5092242;28;20035;-81
2021/03/28 16:45:17;;;;;;;6.30;2.50;;;;;;;;;;5070768;28;20024;-81
2021/03/28 16:47:48;;;;;;;6.43;2.40;;;;;;;;;;5099273;28;20032;-81
2021/03/28 16:50:20;;;;;;;5.97;1.88;;;;;;;;;;5091625;28;20032;-81
2021/03/28 16:52:54;;;;;;;3.55;2.03;;;;;;;;;;5079350;28;20042;-81
2021/03/28 16:55:26;;;;;;;4.65;1.73;;;;;;;;;;5108640;28;20028;-82
2021/03/28 16:57:51;;;;;;;;;;;;;;;;;;5076415;28;20012;-81
2021/03/28 17:00:18;;;;;;;9.05;3.08;;;;;;;;;;5107812;28;20280;-81
2021/03/28 17:02:45;;;;;;;6.63;2.45;;;;;;;;;;5107239;22;20103;-78
2021/03/28 17:05:16;;;;;;;9.18;2.90;;;;;;;;;;5048281;28;20028;-79
2021/03/28 17:07:47;;;;;;;9.40;2.67;;;;;;;;;;5051885;28;20043;-78
2021/03/28 17:10:32;;;;;;;7.47;2.85;;;;;;;;;;5050471;28;20017;-79
2021/03/28 17:12:57;;;;;;;8.57;2.65;;;;;;;;;;5075518;28;20029;-78
2021/03/28 17:15:35;;;;;;;8.02;2.30;;;;;;;;;;5068396;28;20086;-78
2021/03/28 17:18:09;;;;;;;21.70;12.13;;;;;;;;;;5065119;28;20103;-78
2021/03/28 17:20:58;;;;;;;33.40;20.83;;;;;;;;;;5064578;28;20477;-78
2021/03/28 17:23:38;;;;;;;25.80;17.48;;;;;;;;;;5058418;28;20029;-77
2021/03/28 17:26:30;;;;;;;14.48;6.18;;;;;;;;;;5048002;28;20025;-79
2021/03/28 17:29:14;;;;;;;8.80;4.47;;;;;;;;;;5047354;28;20033;-79
2021/03/28 17:31:45;;;;;;;7.18;3.40;;;;;;;;;;5055389;28;20025;-79
2021/03/28 17:34:12;;;;;;;6.33;2.80;;;;;;;;;;5051651;28;20085;-78
2021/03/28 17:36:52;;;;;;;9.18;2.30;;;;;;;;;;5054199;28;20057;-78
2021/03/28 17:39:27;;;;;;;6.70;1.70;;;;;;;;;;5048110;28;20033;-79
2021/03/28 17:41:54;;;;;;;6.07;1.85;;;;;;;;;;5045291;28;20052;-78
2021/03/28 17:44:25;;;;;;;5.78;1.80;;;;;;;;;;5046238;28;20047;-77
2021/03/28 17:46:51;;;;;;;;;;;;;;;;;;5047996;28;20051;-77
2021/03/28 17:49:38;;;;;;;7.13;2.17;;;;;;;;;;5045797;28;19920;-77
2021/03/28 17:52:04;;;;;;;5.05;1.83;;;;;;;;;;5049476;28;20029;-78
2021/03/28 17:54:38;;;;;;;5.40;1.70;;;;;;;;;;5043201;28;20118;-79
2021/03/28 17:57:15;;;;;;;7.10;1.60;;;;;;;;;;5040937;28;20491;-78
2021/03/28 17:59:41;;;;;;;5.30;1.48;;;;;;;;;;5042915;28;20052;-77
2021/03/28 18:02:22;;;;;;;4.10;1.50;;;;;;;;;;5045953;28;20055;-78
2021/03/28 18:04:51;;;;;;;4.93;1.60;;;;;;;;;;5045347;28;20476;-78
2021/03/28 18:07:18;;;;;;;7.00;1.70;;;;;;;;;;5045504;28;20397;-77
2021/03/28 18:09:46;;;;;;;4.93;1.73;;;;;;;;;;5043972;28;20021;-78
2021/03/28 18:12:16;;;;;;;4.35;1.60;;;;;;;;;;5045580;28;20046;-77
2021/03/28 18:14:42;;;;;;;4.18;1.58;;;;;;;;;;5044932;28;20021;-79
2021/03/28 18:17:11;;;;;;;4.43;1.35;;;;;;;;;;5045273;28;20567;-78
2021/03/28 18:19:37;;;;;;;8.57;1.60;;;;;;;;;;5044938;28;20021;-79
2021/03/28 18:22:05;;;;;;;5.50;1.88;;;;;;;;;;5040762;28;20035;-79
2021/03/28 18:24:37;;;;;;;5.32;1.60;;;;;;;;;;5050215;28;20103;-78
2021/03/28 18:27:05;;;;;;;3.67;1.50;;;;;;;;;;5045668;28;20025;-80
2021/03/28 18:30:10;;;;;;;6.80;1.60;;;;;;;;;;5051970;28;20032;-80
2021/03/28 18:32:37;;;;;;;5.63;2.03;;;;;;;;;;5042402;28;20056;-78
2021/03/28 18:35:21;;;;;;;4.50;1.50;;;;;;;;;;5051546;28;20049;-79
2021/03/28 18:37:49;;;;;;;3.72;1.33;;;;;;;;;;5046513;28;20050;-80
2021/03/28 18:40:19;;;;;;;4.43;1.40;;;;;;;;;;5052402;28;20024;-79
2021/03/28 18:42:54;;;;;;;4.88;1.90;;;;;;;;;;5052380;28;20104;-79
2021/03/28 18:45:50;;;;;;;4.28;1.70;;;;;;;;;;5046198;28;20039;-79
2021/03/28 18:50:36;;;;;;;3.58;1.73;;;;;;;;;;5073343;28;20412;-79
2021/03/28 18:53:12;;;;;;;3.35;1.40;;;;;;;;;;5066066;28;20526;-78
2021/03/28 18:55:42;;;;;;;7.95;1.35;;;;;;;;;;5070287;28;20082;-78
2021/03/28 18:58:19;;;;;;;4.57;1.60;;;;;;;;;;5073569;28;20383;-79
2021/03/28 19:00:44;;;;;;;5.50;1.80;;;;;;;;;;5056685;28;20064;-79
2021/03/28 19:03:16;;;;;;;5.50;1.60;;;;;;;;;;5049065;28;20068;-79
2021/03/28 19:05:50;;;;;;;6.50;1.70;;;;;;;;;;5057665;28;20057;-77
2021/03/28 19:08:31;;;;;;;5.50;2.05;;;;;;;;;;5059597;28;20485;-76
2021/03/28 19:11:20;;;;;;;5.00;2.20;;;;;;;;;;5048946;28;20521;-76
2021/03/28 19:13:57;;;;;;;3.70;1.20;;;;;;;;;;5040220;28;20053;-77
2021/03/28 19:16:23;;;;;;;4.65;1.58;;;;;;;;;;5049490;28;20017;-77
2021/03/28 19:18:48;;;;;;;3.88;1.45;;;;;;;;;;5054363;28;20153;-77
2021/03/28 19:21:24;;;;;;;3.20;1.23;;;;;;;;;;5054304;28;20536;-76
2021/03/28 19:23:51;;;;;;;5.05;1.73;;;;;;;;;;5056151;28;20021;-77
2021/03/28 19:26:24;;;;;;;4.13;1.60;;;;;;;;;;5056033;28;20052;-76
2021/03/28 19:28:59;;;;;;;6.50;2.00;;;;;;;;;;5051690;28;20029;-77
2021/03/28 19:31:30;;;;;;;7.32;1.55;;;;;;;;;;5052231;28;20044;-78
2021/03/28 19:34:04;;;;;;;7.93;2.05;;;;;;;;;;5052377;28;20017;-78
2021/03/28 19:36:30;;;;;;;7.60;2.03;;;;;;;;;;5054321;28;20501;-78
2021/03/28 19:38:59;;;;;;;6.40;1.65;;;;;;;;;;5056956;28;20037;-77
2021/03/28 19:41:32;;;;;;;4.60;1.73;;;;;;;;;;5050402;28;20027;-77
2021/03/28 19:44:03;;;;;;;4.88;1.58;;;;;;;;;;5056003;28;20078;-77
2021/03/28 19:49:01;;;;;;;3.90;1.65;;;;;;;;;;5057158;28;19916;-78
2021/03/28 19:51:26;;;;;;;10.07;2.33;;;;;;;;;;5051199;28;20029;-77
2021/03/28 19:54:01;;;;;;;4.35;1.33;;;;;;;;;;5053269;28;20112;-78
2021/03/28 19:56:27;;;;;;;4.13;1.50;;;;;;;;;;5050954;28;20049;-77
2021/03/28 19:59:03;;;;;;;6.15;1.83;;;;;;;;;;5046812;28;20113;-76
2021/03/28 20:01:33;;;;;;;5.65;1.27;;;;;;;;;;5045513;28;20067;-77
2021/03/28 20:06:36;;;;;;;4.57;1.60;;;;;;;;;;5044492;28;20075;-77
2021/03/28 20:09:03;;;;;;;4.63;2.13;;;;;;;;;;5040065;28;20033;-76
2021/03/28 20:11:28;;;;;;;5.97;1.75;;;;;;;;;;5042453;28;20037;-78
2021/03/28 20:13:55;;;;;;;6.25;2.15;;;;;;;;;;5043238;28;20412;-78
2021/03/28 20:16:22;;;;;;;5.57;1.52;;;;;;;;;;5042979;28;20021;-77
2021/03/28 20:18:49;;;;;;;4.57;1.77;;;;;;;;;;5047697;28;20489;-77
2021/03/28 20:21:21;;;;;;;4.47;1.98;;;;;;;;;;5039431;28;20060;-77
2021/03/28 20:23:46;;;;;;;5.22;2.03;;;;;;;;;;5046922;28;20105;-78
2021/03/28 20:26:14;;;;;;;4.47;1.70;;;;;;;;;;5037823;28;20034;-76
2021/03/28 20:28:59;;;;;;;5.22;1.85;;;;;;;;;;5042185;28;20049;-76
2021/03/28 20:31:26;;;;;;;4.70;1.85;;;;;;;;;;5034241;28;20033;-77
2021/03/28 20:33:57;;;;;;;8.25;2.47;;;;;;;;;;5038002;28;20066;-78
2021/03/28 20:36:23;;;;;;;4.93;1.75;;;;;;;;;;5038314;28;20022;-77
2021/03/28 20:38:56;;;;;;;3.50;1.27;;;;;;;;;;5034510;28;20057;-77
2021/03/28 20:41:22;;;;;;;5.32;1.63;;;;;;;;;;5034402;28;20018;-78
2021/03/28 20:43:51;;;;;;;4.32;1.90;;;;;;;;;;5035153;28;20483;-77
2021/03/28 20:46:21;;;;;;;5.70;1.75;;;;;;;;;;5037940;28;20052;-77